aviador You're here:

YKRY Decoded Metar

in
Report Time2018-04-26 12:00:00
UTC Time2018-04-26 13:14:32
Flight Rules Old
Wind230° at 02 kt
W.Decomp.*RWY 23: 2.0 kt HW 0 kt LCW
RWY 16: 0.7 kt HW 1.9 kt RCW
W.Rank230° ranks 21
Current wind is below 230° avg. (7.1)
Visibility9999 m
Phenomena:N/A
Clouds:N/A
Expected CloudBase > 1,200 ft AGL from Temp-Dew spread
CeilingNone
Temp16°C
Dew Point13°C (83% RH)
QNH1016 hPa
Raw Report
METAR YKRY 261200Z AUTO 23002KT 9999 // NCD 16/13 Q1016=

Extra information for YKRY:More info

Social comments